createdAt,value
2023-01-11T00:00:47.202Z,12.52
2023-01-11T00:03:14.047Z,12.62
2023-01-11T00:05:44.137Z,12.38
2023-01-11T00:08:11.329Z,12.53
2023-01-11T00:10:38.594Z,12.51
2023-01-11T00:13:05.547Z,12.50
2023-01-11T00:15:32.435Z,12.50
2023-01-11T00:17:59.329Z,12.49
2023-01-11T00:20:26.231Z,12.49
2023-01-11T00:22:53.177Z,12.46
2023-01-11T00:25:20.017Z,12.45
2023-01-11T00:27:49.751Z,12.42
2023-01-11T00:30:17.768Z,12.41
2023-01-11T00:32:44.669Z,12.37
2023-01-11T00:35:11.634Z,12.36
2023-01-11T00:37:38.692Z,12.35
2023-01-11T00:40:06.046Z,12.33
2023-01-11T00:42:51.355Z,12.20
2023-01-11T00:45:37.192Z,12.35
2023-01-11T00:48:06.058Z,12.33
2023-01-11T00:50:37.155Z,12.33
2023-01-11T00:53:04.033Z,12.31
2023-01-11T00:55:32.099Z,12.31
2023-01-11T00:57:59.129Z,12.32
2023-01-11T01:00:26.206Z,12.25
2023-01-11T01:02:53.257Z,12.26
2023-01-11T01:05:20.221Z,12.24
2023-01-11T01:07:47.244Z,12.22
2023-01-11T01:10:15.048Z,12.18
2023-01-11T01:13:00.630Z,12.18
2023-01-11T01:15:27.546Z,12.13
2023-01-11T01:17:57.474Z,11.94
2023-01-11T01:20:24.601Z,12.10
2023-01-11T01:22:51.700Z,12.09
2023-01-11T01:25:18.662Z,12.07
2023-01-11T01:27:45.539Z,11.99
2023-01-11T01:30:12.627Z,12.03
2023-01-11T01:32:39.781Z,12.02
2023-01-11T01:35:06.899Z,12.00
2023-01-11T01:37:33.784Z,11.98
2023-01-11T01:40:00.635Z,11.97
2023-01-11T01:42:27.531Z,11.96
2023-01-11T01:44:54.412Z,11.95
2023-01-11T01:47:23.409Z,11.93
2023-01-11T01:49:50.234Z,11.90
2023-01-11T01:52:17.120Z,11.87
2023-01-11T01:54:44.989Z,11.84
2023-01-11T01:57:18.803Z,11.84
2023-01-11T01:59:45.821Z,11.81
2023-01-11T02:02:12.715Z,11.79
2023-01-11T02:04:41.647Z,11.78
2023-01-11T02:07:29.095Z,11.77
2023-01-11T02:10:00.401Z,11.73
2023-01-11T02:12:30.330Z,11.70
2023-01-11T02:14:59.367Z,11.67
2023-01-11T02:17:26.245Z,11.68
2023-01-11T02:19:53.019Z,11.67
2023-01-11T02:22:28.669Z,11.64
2023-01-11T02:25:23.254Z,11.63
2023-01-11T02:28:05.135Z,11.59
2023-01-11T02:30:50.140Z,11.58
2023-01-11T02:33:32.169Z,11.54
2023-01-11T02:36:17.056Z,11.52
2023-01-11T02:38:52.737Z,11.51
2023-01-11T02:42:09.609Z,11.53
2023-01-11T02:44:57.514Z,11.51
2023-01-11T02:47:33.309Z,11.45
2023-01-11T02:50:07.150Z,11.49
2023-01-11T02:52:42.783Z,11.52
2023-01-11T02:55:09.758Z,11.50
2023-01-11T02:57:39.263Z,11.51
2023-01-11T03:00:06.902Z,11.51
2023-01-11T03:02:33.903Z,11.48
2023-01-11T03:05:00.812Z,11.48
2023-01-11T03:07:39.579Z,11.59
2023-01-11T03:10:38.829Z,11.83
2023-01-11T03:13:23.961Z,12.13
2023-01-11T03:16:02.858Z,12.43
2023-01-11T03:18:53.281Z,12.66
2023-01-11T03:21:50.128Z,12.81
2023-01-11T03:24:25.997Z,13.03
2023-01-11T03:27:24.065Z,13.31
2023-01-11T03:29:54.665Z,13.55
2023-01-11T03:32:24.037Z,13.68
2023-01-11T03:35:21.698Z,13.85
2023-01-11T03:37:52.376Z,14.06
2023-01-11T03:40:28.135Z,14.29
2023-01-11T03:43:13.487Z,14.07
2023-01-11T03:45:45.307Z,14.57
2023-01-11T03:48:40.016Z,14.52
2023-01-11T03:51:10.109Z,14.98
2023-01-11T03:53:37.149Z,15.12
2023-01-11T03:56:04.786Z,15.17
2023-01-11T03:58:31.712Z,15.16
2023-01-11T04:00:59.378Z,15.45
2023-01-11T04:03:27.265Z,15.68
2023-01-11T04:06:00.553Z,15.79
2023-01-11T04:08:27.620Z,15.88
2023-01-11T04:10:54.480Z,15.91
2023-01-11T04:13:21.367Z,16.20
2023-01-11T04:15:48.217Z,16.30
2023-01-11T04:18:15.026Z,16.34
2023-01-11T04:20:42.051Z,16.46
2023-01-11T04:23:10.300Z,16.59
2023-01-11T04:25:37.179Z,16.71
2023-01-11T04:28:04.200Z,16.75
2023-01-11T04:30:31.097Z,16.87
2023-01-11T04:33:00.657Z,16.99
2023-01-11T04:35:27.605Z,17.11
2023-01-11T04:37:55.521Z,17.23
2023-01-11T04:40:22.634Z,17.24
2023-01-11T04:42:49.573Z,17.45
2023-01-11T04:45:16.738Z,17.42
2023-01-11T04:47:43.935Z,17.70
2023-01-11T04:50:11.987Z,17.74
2023-01-11T04:52:41.600Z,17.84
2023-01-11T04:55:09.324Z,17.95
2023-01-11T04:57:36.420Z,17.89
2023-01-11T05:00:06.320Z,18.03
2023-01-11T05:02:33.315Z,17.95
2023-01-11T05:05:00.309Z,18.29
2023-01-11T05:07:27.342Z,18.40
2023-01-11T05:09:54.345Z,18.46
2023-01-11T05:12:21.511Z,18.57
2023-01-11T05:14:48.558Z,18.68
2023-01-11T05:17:16.013Z,18.59
2023-01-11T05:19:43.223Z,18.82
2023-01-11T05:22:10.419Z,18.88
2023-01-11T05:24:37.554Z,19.01
2023-01-11T05:27:06.299Z,19.04
2023-01-11T05:29:33.515Z,19.28
2023-01-11T05:32:00.653Z,19.32
2023-01-11T05:34:27.885Z,19.41
2023-01-11T05:36:55.349Z,19.54
2023-01-11T05:39:23.886Z,19.45
2023-01-11T05:41:50.785Z,19.65
2023-01-11T05:44:36.508Z,19.49
2023-01-11T05:47:04.475Z,19.70
2023-01-11T05:49:31.650Z,19.53
2023-01-11T05:51:58.860Z,19.75
2023-01-11T05:54:26.122Z,19.78
2023-01-11T05:56:53.211Z,19.89
2023-01-11T05:59:20.262Z,19.97
2023-01-11T06:01:47.644Z,19.98
2023-01-11T06:04:14.726Z,20.01
2023-01-11T06:06:41.873Z,20.11
2023-01-11T06:09:09.120Z,20.07
2023-01-11T06:11:36.331Z,20.25
2023-01-11T06:14:03.517Z,20.28
2023-01-11T06:16:31.915Z,20.35
2023-01-11T06:18:59.237Z,20.45
2023-01-11T06:21:26.202Z,20.50
2023-01-11T06:23:53.366Z,20.44
2023-01-11T06:26:21.405Z,20.09
2023-01-11T06:28:48.425Z,20.13
2023-01-11T06:31:17.593Z,20.19
2023-01-11T06:33:45.357Z,20.00
2023-01-11T06:36:12.560Z,20.17
2023-01-11T06:38:39.676Z,20.49
2023-01-11T06:41:08.548Z,20.51
2023-01-11T06:43:37.957Z,20.60
2023-01-11T06:46:05.484Z,20.56
2023-01-11T06:48:32.598Z,20.55
2023-01-11T06:50:59.777Z,20.44
2023-01-11T06:53:28.769Z,20.42
2023-01-11T06:55:57.365Z,20.48
2023-01-11T06:58:24.660Z,20.30
2023-01-11T07:00:52.498Z,20.52
2023-01-11T07:03:20.621Z,20.59
2023-01-11T07:05:47.694Z,20.68
2023-01-11T07:08:14.940Z,20.75
2023-01-11T07:10:43.762Z,20.77
2023-01-11T07:13:11.701Z,20.80
2023-01-11T07:15:39.051Z,20.89
2023-01-11T07:18:06.253Z,20.94
2023-01-11T07:20:33.291Z,20.76
2023-01-11T07:23:00.489Z,20.84
2023-01-11T07:25:28.438Z,20.95
2023-01-11T07:27:59.680Z,21.18
2023-01-11T07:30:27.823Z,21.18
2023-01-11T07:32:55.133Z,20.97
2023-01-11T07:35:22.130Z,21.07
2023-01-11T07:37:49.215Z,21.22
2023-01-11T07:40:17.987Z,21.19
2023-01-11T07:43:07.157Z,20.94
2023-01-11T07:45:45.336Z,21.06
2023-01-11T07:48:13.273Z,21.32
2023-01-11T07:50:42.244Z,21.43
2023-01-11T07:53:10.322Z,21.51
2023-01-11T07:55:39.784Z,21.47
2023-01-11T07:58:11.475Z,21.29
2023-01-11T08:00:40.759Z,21.51
2023-01-11T08:03:07.912Z,21.57
2023-01-11T08:05:34.991Z,21.58
2023-01-11T08:08:02.159Z,21.62
2023-01-11T08:10:29.167Z,21.65
2023-01-11T08:13:14.921Z,21.73
2023-01-11T08:15:44.732Z,21.54
2023-01-11T08:18:11.967Z,21.30
2023-01-11T08:20:39.623Z,21.32
2023-01-11T08:23:07.827Z,21.43
2023-01-11T08:25:34.835Z,21.56
2023-01-11T08:28:02.696Z,21.52
2023-01-11T08:30:29.842Z,21.68
2023-01-11T08:32:57.738Z,21.76
2023-01-11T08:35:25.521Z,21.90
2023-01-11T08:37:52.770Z,21.97
2023-01-11T08:40:21.034Z,22.01
2023-01-11T08:42:49.237Z,21.77
2023-01-11T08:45:16.342Z,22.17
2023-01-11T08:47:43.260Z,22.19
2023-01-11T08:50:10.865Z,22.19
2023-01-11T08:52:37.785Z,22.05
2023-01-11T08:55:07.684Z,22.25
2023-01-11T08:57:36.635Z,22.31
2023-01-11T09:00:07.154Z,22.16
2023-01-11T09:02:34.103Z,22.31
2023-01-11T09:05:01.180Z,22.37
2023-01-11T09:07:28.191Z,22.43
2023-01-11T09:09:55.157Z,22.40
2023-01-11T09:12:22.163Z,22.43
2023-01-11T09:14:49.087Z,22.46
2023-01-11T09:17:16.018Z,22.53
2023-01-11T09:19:42.945Z,22.56
2023-01-11T09:22:09.860Z,22.55
2023-01-11T09:24:36.803Z,22.57
2023-01-11T09:27:04.997Z,22.65
2023-01-11T09:29:32.079Z,22.48
2023-01-11T09:31:59.228Z,22.74
2023-01-11T09:34:27.511Z,22.62
2023-01-11T09:36:56.781Z,22.86
2023-01-11T09:39:26.435Z,22.91
2023-01-11T09:42:04.199Z,22.95
2023-01-11T09:44:31.238Z,22.99
2023-01-11T09:47:25.539Z,22.93
2023-01-11T09:49:56.213Z,23.00
2023-01-11T09:52:44.604Z,23.21
2023-01-11T09:55:20.096Z,23.28
2023-01-11T09:58:28.393Z,23.37
2023-01-11T10:01:40.294Z,23.35
2023-01-11T10:04:37.326Z,23.43
2023-01-11T10:07:34.811Z,23.52
2023-01-11T10:18:29.208Z,23.70
2023-01-11T10:19:48.115Z,23.80
2023-01-11T10:22:24.737Z,23.82
2023-01-11T10:25:24.914Z,23.88
2023-01-11T10:28:00.898Z,23.96
2023-01-11T10:30:32.974Z,24.01
2023-01-11T10:33:42.785Z,23.94
2023-01-11T10:36:31.482Z,23.66
2023-01-11T10:39:22.662Z,23.79
2023-01-11T10:42:02.459Z,23.74
2023-01-11T10:44:37.960Z,23.92
2023-01-11T10:47:05.392Z,24.15
2023-01-11T10:49:33.789Z,24.33
2023-01-11T10:52:41.621Z,24.50
2023-01-11T10:55:18.197Z,24.59
2023-01-11T10:58:02.090Z,24.72
2023-01-11T11:00:42.353Z,24.88
2023-01-11T11:03:40.394Z,25.03
2023-01-11T11:06:19.270Z,25.10
2023-01-11T11:08:53.723Z,25.23
2023-01-11T11:11:40.842Z,25.37
2023-01-11T11:14:15.378Z,25.47
2023-01-11T11:16:58.006Z,25.57
2023-01-11T11:19:26.294Z,25.65
2023-01-11T11:21:53.873Z,25.79
2023-01-11T11:24:27.879Z,25.64
2023-01-11T11:26:58.542Z,24.80
2023-01-11T11:29:30.676Z,24.10
2023-01-11T11:31:59.202Z,23.61
2023-01-11T11:34:27.516Z,23.63
2023-01-11T11:36:55.414Z,23.91
2023-01-11T11:39:23.818Z,24.15
2023-01-11T11:41:51.410Z,24.38
2023-01-11T11:44:19.613Z,24.67
2023-01-11T11:47:09.365Z,24.93
2023-01-11T11:49:36.596Z,25.02
2023-01-11T11:52:04.520Z,25.00
2023-01-11T11:54:51.639Z,25.31
2023-01-11T11:57:28.321Z,25.09
2023-01-11T12:00:21.815Z,25.07
2023-01-11T12:02:56.548Z,25.28
2023-01-11T12:05:23.533Z,25.41
2023-01-11T12:07:55.273Z,25.49
2023-01-11T12:10:24.459Z,25.57
2023-01-11T12:12:55.291Z,25.92
2023-01-11T12:15:27.257Z,26.08
2023-01-11T12:17:55.113Z,26.16
2023-01-11T12:20:21.915Z,26.09
2023-01-11T12:22:49.397Z,26.09
2023-01-11T12:25:19.313Z,25.98
2023-01-11T12:27:53.254Z,25.29
2023-01-11T12:30:22.232Z,25.16
2023-01-11T12:32:49.283Z,25.27
2023-01-11T12:35:39.402Z,25.50
2023-01-11T12:38:51.228Z,25.62
2023-01-11T12:41:21.040Z,25.71
2023-01-11T12:44:10.447Z,25.88
2023-01-11T12:46:57.584Z,26.01
2023-01-11T12:50:08.799Z,26.13
2023-01-11T12:52:41.678Z,26.16
2023-01-11T12:55:42.009Z,26.25
2023-01-11T12:58:15.721Z,26.32
2023-01-11T13:00:56.674Z,26.35
2023-01-11T13:03:33.546Z,26.30
2023-01-11T13:06:35.577Z,26.42
2023-01-11T13:09:05.415Z,26.48
2023-01-11T13:11:51.337Z,26.47
2023-01-11T13:14:55.457Z,26.52
2023-01-11T13:17:22.342Z,26.59
2023-01-11T13:19:55.003Z,26.60
2023-01-11T13:22:23.496Z,26.62
2023-01-11T13:24:50.984Z,26.54
2023-01-11T13:27:25.037Z,26.57
2023-01-11T13:29:54.499Z,26.54
2023-01-11T13:32:23.657Z,26.34
2023-01-11T13:35:06.185Z,26.48
2023-01-11T13:38:12.486Z,26.41
2023-01-11T13:40:43.701Z,26.36
2023-01-11T13:43:30.239Z,26.22
2023-01-11T13:46:08.531Z,26.14
2023-01-11T13:48:40.741Z,25.93
2023-01-11T13:51:13.683Z,26.05
2023-01-11T13:54:07.841Z,25.98
2023-01-11T13:56:38.576Z,25.90
2023-01-11T13:59:07.883Z,25.83
2023-01-11T14:02:06.925Z,25.58
2023-01-11T14:04:53.785Z,25.61
2023-01-11T14:07:48.757Z,25.48
2023-01-11T14:10:30.641Z,25.33
2023-01-11T14:13:47.503Z,24.96
2023-01-11T14:16:42.986Z,24.98
2023-01-11T14:19:20.171Z,24.91
2023-01-11T14:21:55.976Z,24.82
2023-01-11T14:24:23.041Z,24.68
2023-01-11T14:27:02.163Z,24.56
2023-01-11T14:29:47.072Z,24.44
2023-01-11T14:32:16.879Z,24.32
2023-01-11T14:35:14.405Z,24.22
2023-01-11T14:37:56.236Z,24.09
2023-01-11T14:40:41.352Z,24.00
2023-01-11T14:43:22.769Z,23.89
2023-01-11T14:45:55.863Z,23.79
2023-01-11T14:48:34.199Z,23.69
2023-01-11T14:51:13.181Z,23.57
2023-01-11T14:53:43.757Z,23.47
2023-01-11T14:56:34.328Z,23.39
2023-01-11T14:59:03.215Z,23.30
2023-01-11T15:01:30.250Z,23.23
2023-01-11T15:03:57.225Z,22.98
2023-01-11T15:06:24.438Z,23.04
2023-01-11T15:08:54.255Z,22.96
2023-01-11T15:11:41.839Z,22.73
2023-01-11T15:14:22.548Z,22.77
2023-01-11T15:17:12.229Z,22.53
2023-01-11T15:19:40.851Z,22.60
2023-01-11T15:22:08.155Z,22.33
2023-01-11T15:24:42.080Z,22.40
2023-01-11T15:27:25.640Z,22.32
2023-01-11T15:29:56.967Z,22.21
2023-01-11T15:32:30.159Z,22.13
2023-01-11T15:35:25.169Z,22.03
2023-01-11T15:38:14.106Z,21.93
2023-01-11T15:40:41.930Z,21.81
2023-01-11T15:43:09.234Z,21.71
2023-01-11T15:46:16.151Z,21.64
2023-01-11T15:48:47.707Z,21.47
2023-01-11T15:51:33.456Z,21.35
2023-01-11T15:54:11.557Z,21.24
2023-01-11T15:56:57.500Z,21.12
2023-01-11T15:59:39.676Z,21.05
2023-01-11T16:02:15.959Z,20.98
2023-01-11T16:04:59.235Z,20.86
2023-01-11T16:07:43.652Z,20.74
2023-01-11T16:10:38.357Z,20.61
2023-01-11T16:13:17.314Z,20.50
2023-01-11T16:16:06.862Z,20.43
2023-01-11T16:18:56.495Z,20.33
2023-01-11T16:21:26.562Z,20.26
2023-01-11T16:23:53.793Z,20.19
2023-01-11T16:26:20.885Z,20.14
2023-01-11T16:28:52.528Z,19.72
2023-01-11T16:31:19.638Z,20.00
2023-01-11T16:33:49.581Z,19.93
2023-01-11T16:36:23.831Z,19.67
2023-01-11T16:39:12.223Z,19.58
2023-01-11T16:41:49.084Z,19.67
2023-01-11T16:44:40.630Z,19.62
2023-01-11T16:47:12.007Z,19.58
2023-01-11T16:49:39.828Z,19.53
2023-01-11T16:52:35.919Z,19.53
2023-01-11T16:55:04.799Z,19.27
2023-01-11T16:57:35.914Z,19.35
2023-01-11T17:00:06.479Z,19.28
2023-01-11T17:02:39.440Z,19.07
2023-01-11T17:05:20.564Z,19.17
2023-01-11T17:07:47.697Z,18.97
2023-01-11T17:10:16.989Z,19.01
2023-01-11T17:12:44.911Z,18.58
2023-01-11T17:15:17.854Z,18.82
2023-01-11T17:17:44.969Z,18.51
2023-01-11T17:20:30.419Z,18.67
2023-01-11T17:22:57.703Z,18.57
2023-01-11T17:25:29.476Z,18.48
2023-01-11T17:28:05.517Z,18.46
2023-01-11T17:30:34.145Z,18.23
2023-01-11T17:33:01.008Z,18.34
2023-01-11T17:35:33.653Z,18.24
2023-01-11T17:38:06.100Z,18.02
2023-01-11T17:40:35.889Z,18.10
2023-01-11T17:43:34.087Z,18.01
2023-01-11T17:46:02.495Z,17.77
2023-01-11T17:48:29.505Z,17.90
2023-01-11T17:50:57.848Z,17.72
2023-01-11T17:53:32.496Z,17.78
2023-01-11T17:56:03.311Z,17.72
2023-01-11T17:58:34.169Z,17.62
2023-01-11T18:01:18.330Z,17.40
2023-01-11T18:03:47.268Z,17.48
2023-01-11T18:06:23.475Z,17.45
2023-01-11T18:08:52.608Z,17.22
2023-01-11T18:11:30.432Z,17.38
2023-01-11T18:13:59.402Z,17.34
2023-01-11T18:16:26.545Z,17.29
2023-01-11T18:18:53.811Z,17.26
2023-01-11T18:21:26.466Z,17.22
2023-01-11T18:24:21.578Z,16.97
2023-01-11T18:26:50.174Z,17.13
2023-01-11T18:29:42.312Z,17.08
2023-01-11T18:32:10.600Z,17.06
2023-01-11T18:34:37.482Z,17.02
2023-01-11T18:37:07.648Z,17.00
2023-01-11T18:39:34.892Z,16.97
2023-01-11T18:42:08.331Z,16.91
2023-01-11T18:44:43.068Z,16.87
2023-01-11T18:47:12.537Z,16.85
2023-01-11T18:49:39.370Z,16.78
2023-01-11T18:52:06.309Z,16.74
2023-01-11T18:54:33.141Z,16.65
2023-01-11T18:57:02.176Z,16.65
2023-01-11T18:59:29.151Z,16.60
2023-01-11T19:02:43.179Z,16.55
2023-01-11T19:05:11.510Z,16.40
2023-01-11T19:07:38.347Z,16.44
2023-01-11T19:10:05.893Z,16.38
2023-01-11T19:12:32.911Z,16.33
2023-01-11T19:14:59.795Z,16.30
2023-01-11T19:17:28.502Z,16.27
2023-01-11T19:19:55.433Z,16.18
2023-01-11T19:22:26.059Z,16.17
2023-01-11T19:24:53.974Z,15.98
2023-01-11T19:27:21.157Z,16.06
2023-01-11T19:29:48.086Z,16.02
2023-01-11T19:32:15.799Z,15.98
2023-01-11T19:34:42.885Z,15.92
2023-01-11T19:37:09.708Z,15.88
2023-01-11T19:39:36.634Z,15.84
2023-01-11T19:42:03.813Z,15.81
2023-01-11T19:44:32.112Z,15.71
2023-01-11T19:47:10.916Z,15.68
2023-01-11T19:49:39.994Z,15.61
2023-01-11T19:52:12.997Z,15.59
2023-01-11T19:54:43.340Z,15.56
2023-01-11T19:57:11.362Z,15.37
2023-01-11T19:59:38.291Z,15.35
2023-01-11T20:02:05.595Z,15.47
2023-01-11T20:04:32.753Z,15.43
2023-01-11T20:06:59.622Z,15.42
2023-01-11T20:09:26.532Z,15.39
2023-01-11T20:11:54.673Z,15.37
2023-01-11T20:14:21.545Z,15.35
2023-01-11T20:16:48.503Z,15.23
2023-01-11T20:19:15.450Z,15.12
2023-01-11T20:21:42.373Z,15.14
2023-01-11T20:24:12.404Z,15.29
2023-01-11T20:26:39.486Z,15.25
2023-01-11T20:29:06.723Z,14.86
2023-01-11T20:31:35.519Z,15.21
2023-01-11T20:34:09.921Z,15.00
2023-01-11T20:36:37.005Z,15.12
2023-01-11T20:39:04.348Z,15.07
2023-01-11T20:41:49.847Z,15.03
2023-01-11T20:44:28.023Z,14.96
2023-01-11T20:47:02.792Z,14.95
2023-01-11T20:49:30.191Z,14.92
2023-01-11T20:51:57.207Z,14.88
2023-01-11T20:54:24.139Z,14.69
2023-01-11T20:56:50.982Z,14.79
2023-01-11T20:59:19.977Z,14.57
2023-01-11T21:01:47.821Z,14.73
2023-01-11T21:04:14.948Z,14.68
2023-01-11T21:06:44.164Z,14.66
2023-01-11T21:09:12.953Z,14.64
2023-01-11T21:11:40.137Z,14.61
2023-01-11T21:14:12.080Z,14.39
2023-01-11T21:16:42.743Z,14.34
2023-01-11T21:19:13.619Z,14.48
2023-01-11T21:21:40.684Z,14.42
2023-01-11T21:24:08.040Z,14.42
2023-01-11T21:26:34.929Z,14.39
2023-01-11T21:29:03.516Z,14.37
2023-01-11T21:31:32.148Z,14.03
2023-01-11T21:33:59.348Z,14.33
2023-01-11T21:36:26.977Z,14.30
2023-01-11T21:38:54.954Z,14.07
2023-01-11T21:41:43.292Z,14.22
2023-01-11T21:44:11.346Z,14.03
2023-01-11T21:46:38.332Z,14.20
2023-01-11T21:49:05.724Z,14.02
2023-01-11T21:51:34.473Z,14.20
2023-01-11T21:54:04.162Z,14.20
2023-01-11T21:56:31.006Z,14.21
2023-01-11T21:58:57.958Z,14.19
2023-01-11T22:01:24.809Z,14.20
2023-01-11T22:03:51.709Z,14.18
2023-01-11T22:06:18.786Z,14.18
2023-01-11T22:08:46.074Z,14.14
2023-01-11T22:11:14.284Z,14.13
2023-01-11T22:13:41.258Z,14.13
2023-01-11T22:16:12.783Z,14.09
2023-01-11T22:18:41.090Z,14.07
2023-01-11T22:21:10.063Z,14.04
2023-01-11T22:23:37.131Z,14.04
2023-01-11T22:26:09.047Z,14.02
2023-01-11T22:28:54.551Z,13.99
2023-01-11T22:31:21.598Z,13.95
2023-01-11T22:33:48.456Z,13.86
2023-01-11T22:36:15.749Z,13.91
2023-01-11T22:38:42.746Z,13.84
2023-01-11T22:41:09.836Z,13.67
2023-01-11T22:43:36.861Z,13.84
2023-01-11T22:46:03.838Z,13.82
2023-01-11T22:48:31.590Z,13.78
2023-01-11T22:50:58.736Z,13.79
2023-01-11T22:53:25.603Z,13.77
2023-01-11T22:55:52.503Z,13.73
2023-01-11T22:58:19.701Z,13.70
2023-01-11T23:00:46.736Z,13.67
2023-01-11T23:03:14.793Z,13.63
2023-01-11T23:05:47.296Z,13.60
2023-01-11T23:08:14.811Z,13.60
2023-01-11T23:10:41.908Z,13.43
2023-01-11T23:13:28.414Z,13.55
2023-01-11T23:15:55.564Z,13.50
2023-01-11T23:18:22.721Z,13.47
2023-01-11T23:20:49.776Z,13.46
2023-01-11T23:23:16.679Z,13.41
2023-01-11T23:25:43.525Z,13.40
2023-01-11T23:28:10.626Z,13.37
2023-01-11T23:30:37.489Z,13.31
2023-01-11T23:33:04.471Z,13.33
2023-01-11T23:35:31.364Z,13.31
2023-01-11T23:37:58.216Z,13.28
2023-01-11T23:40:25.075Z,13.25
2023-01-11T23:42:52.013Z,13.04
2023-01-11T23:45:18.861Z,13.21
2023-01-11T23:47:45.761Z,13.19
2023-01-11T23:50:12.646Z,13.19
2023-01-11T23:52:39.505Z,13.18
2023-01-11T23:55:06.910Z,13.17
2023-01-11T23:57:33.932Z,13.14
